sensor_id;sensor_type;location;lat;lon;timestamp;temperature;humidity
41784;DHT22;27458;53.236;-6.622;2022-07-29T00:14:32;17.20;81.40
41784;DHT22;27458;53.236;-6.622;2022-07-29T00:28:32;17.40;81.40
41784;DHT22;27458;53.236;-6.622;2022-07-29T00:31:48;17.40;81.30
41784;DHT22;27458;53.236;-6.622;2022-07-29T00:35:08;17.40;81.30
41784;DHT22;27458;53.236;-6.622;2022-07-29T00:41:34;17.60;81.30
41784;DHT22;27458;53.236;-6.622;2022-07-29T00:45:05;17.60;81.20
41784;DHT22;27458;53.236;-6.622;2022-07-29T00:51:46;17.80;81.10
41784;DHT22;27458;53.236;-6.622;2022-07-29T00:54:22;17.80;81.10
41784;DHT22;27458;53.236;-6.622;2022-07-29T00:57:48;17.80;80.90
41784;DHT22;27458;53.236;-6.622;2022-07-29T01:01:36;17.90;80.90
41784;DHT22;27458;53.236;-6.622;2022-07-29T01:08:19;17.90;80.90
41784;DHT22;27458;53.236;-6.622;2022-07-29T01:32:18;18.10;81.20
41784;DHT22;27458;53.236;-6.622;2022-07-29T01:35:33;18.10;81.10
41784;DHT22;27458;53.236;-6.622;2022-07-29T01:45:48;18.10;81.00
41784;DHT22;27458;53.236;-6.622;2022-07-29T02:06:12;18.10;80.90
41784;DHT22;27458;53.236;-6.622;2022-07-29T02:08:39;18.10;81.00
41784;DHT22;27458;53.236;-6.622;2022-07-29T02:11:07;18.10;81.30
41784;DHT22;27458;53.236;-6.622;2022-07-29T02:13:34;18.10;81.70
41784;DHT22;27458;53.236;-6.622;2022-07-29T02:16:02;18.10;82.10
41784;DHT22;27458;53.236;-6.622;2022-07-29T02:18:30;18.00;82.40
41784;DHT22;27458;53.236;-6.622;2022-07-29T02:20:58;18.00;82.80
41784;DHT22;27458;53.236;-6.622;2022-07-29T02:23:25;18.00;83.20
41784;DHT22;27458;53.236;-6.622;2022-07-29T02:26:00;18.00;83.80
41784;DHT22;27458;53.236;-6.622;2022-07-29T02:28:27;17.90;84.20
41784;DHT22;27458;53.236;-6.622;2022-07-29T02:30:57;17.80;84.00
41784;DHT22;27458;53.236;-6.622;2022-07-29T02:33:24;17.70;84.10
41784;DHT22;27458;53.236;-6.622;2022-07-29T02:35:52;17.70;84.40
41784;DHT22;27458;53.236;-6.622;2022-07-29T02:38:20;17.60;84.70
41784;DHT22;27458;53.236;-6.622;2022-07-29T02:41:11;17.50;86.90
41784;DHT22;27458;53.236;-6.622;2022-07-29T02:43:38;17.50;89.10
41784;DHT22;27458;53.236;-6.622;2022-07-29T02:46:11;17.40;90.20
41784;DHT22;27458;53.236;-6.622;2022-07-29T02:48:41;17.40;91.10
41784;DHT22;27458;53.236;-6.622;2022-07-29T02:51:23;17.40;92.00
41784;DHT22;27458;53.236;-6.622;2022-07-29T02:53:53;17.30;92.30
41784;DHT22;27458;53.236;-6.622;2022-07-29T02:56:25;17.30;92.40
41784;DHT22;27458;53.236;-6.622;2022-07-29T02:58:55;17.30;92.60
41784;DHT22;27458;53.236;-6.622;2022-07-29T03:01:25;17.30;92.90
41784;DHT22;27458;53.236;-6.622;2022-07-29T03:03:55;17.30;93.20
41784;DHT22;27458;53.236;-6.622;2022-07-29T03:06:24;17.20;93.50
41784;DHT22;27458;53.236;-6.622;2022-07-29T03:08:51;17.30;93.80
41784;DHT22;27458;53.236;-6.622;2022-07-29T03:11:18;17.20;94.00
41784;DHT22;27458;53.236;-6.622;2022-07-29T03:13:44;17.20;94.30
41784;DHT22;27458;53.236;-6.622;2022-07-29T03:16:10;17.20;94.60
41784;DHT22;27458;53.236;-6.622;2022-07-29T03:18:37;17.20;94.90
41784;DHT22;27458;53.236;-6.622;2022-07-29T03:21:03;17.20;95.30
41784;DHT22;27458;53.236;-6.622;2022-07-29T03:23:29;17.20;95.60
41784;DHT22;27458;53.236;-6.622;2022-07-29T03:25:55;17.20;96.00
41784;DHT22;27458;53.236;-6.622;2022-07-29T03:28:21;17.20;96.30
41784;DHT22;27458;53.236;-6.622;2022-07-29T03:30:48;17.20;96.60
41784;DHT22;27458;53.236;-6.622;2022-07-29T03:33:14;17.20;96.90
41784;DHT22;27458;53.236;-6.622;2022-07-29T03:35:40;17.20;97.20
41784;DHT22;27458;53.236;-6.622;2022-07-29T03:38:06;17.20;97.50
41784;DHT22;27458;53.236;-6.622;2022-07-29T03:40:46;17.30;97.80
41784;DHT22;27458;53.236;-6.622;2022-07-29T03:43:15;17.30;98.10
41784;DHT22;27458;53.236;-6.622;2022-07-29T03:45:47;17.30;98.30
41784;DHT22;27458;53.236;-6.622;2022-07-29T03:48:15;17.20;98.50
41784;DHT22;27458;53.236;-6.622;2022-07-29T03:50:41;17.20;98.70
41784;DHT22;27458;53.236;-6.622;2022-07-29T03:53:08;17.20;99.00
41784;DHT22;27458;53.236;-6.622;2022-07-29T03:55:40;17.20;99.20
41784;DHT22;27458;53.236;-6.622;2022-07-29T03:58:06;17.30;99.50
41784;DHT22;27458;53.236;-6.622;2022-07-29T04:00:34;17.30;99.70
41784;DHT22;27458;53.236;-6.622;2022-07-29T04:03:02;17.30;99.90
41784;DHT22;27458;53.236;-6.622;2022-07-29T04:05:28;17.30;99.90
41784;DHT22;27458;53.236;-6.622;2022-07-29T04:07:54;17.40;99.90
41784;DHT22;27458;53.236;-6.622;2022-07-29T04:10:20;17.40;99.90
41784;DHT22;27458;53.236;-6.622;2022-07-29T04:12:45;17.40;99.90
41784;DHT22;27458;53.236;-6.622;2022-07-29T04:15:11;17.40;99.90
41784;DHT22;27458;53.236;-6.622;2022-07-29T04:17:37;17.50;99.90
41784;DHT22;27458;53.236;-6.622;2022-07-29T04:20:04;17.50;99.90
41784;DHT22;27458;53.236;-6.622;2022-07-29T04:22:29;17.50;99.90
41784;DHT22;27458;53.236;-6.622;2022-07-29T04:24:55;17.50;99.90
41784;DHT22;27458;53.236;-6.622;2022-07-29T04:27:21;17.50;99.90
41784;DHT22;27458;53.236;-6.622;2022-07-29T04:29:47;17.50;99.90
41784;DHT22;27458;53.236;-6.622;2022-07-29T04:34:48;17.50;99.90
41784;DHT22;27458;53.236;-6.622;2022-07-29T04:37:13;17.50;99.90
41784;DHT22;27458;53.236;-6.622;2022-07-29T04:39:39;17.50;99.90
41784;DHT22;27458;53.236;-6.622;2022-07-29T04:42:05;17.50;99.90
41784;DHT22;27458;53.236;-6.622;2022-07-29T04:44:30;17.50;99.90
41784;DHT22;27458;53.236;-6.622;2022-07-29T04:46:57;17.50;99.90
41784;DHT22;27458;53.236;-6.622;2022-07-29T04:49:22;17.50;99.90
41784;DHT22;27458;53.236;-6.622;2022-07-29T04:51:48;17.50;99.90
41784;DHT22;27458;53.236;-6.622;2022-07-29T04:54:14;17.50;99.90
41784;DHT22;27458;53.236;-6.622;2022-07-29T04:56:40;17.50;99.90
41784;DHT22;27458;53.236;-6.622;2022-07-29T04:59:07;17.50;99.90
41784;DHT22;27458;53.236;-6.622;2022-07-29T05:01:32;17.50;99.90
41784;DHT22;27458;53.236;-6.622;2022-07-29T05:03:58;17.50;99.90
41784;DHT22;27458;53.236;-6.622;2022-07-29T05:06:24;17.50;99.90
41784;DHT22;27458;53.236;-6.622;2022-07-29T05:08:50;17.50;99.90
41784;DHT22;27458;53.236;-6.622;2022-07-29T05:11:15;17.50;99.90
41784;DHT22;27458;53.236;-6.622;2022-07-29T05:13:41;17.50;99.90
41784;DHT22;27458;53.236;-6.622;2022-07-29T05:16:08;17.60;99.90
41784;DHT22;27458;53.236;-6.622;2022-07-29T05:18:33;17.60;99.90
41784;DHT22;27458;53.236;-6.622;2022-07-29T05:20:59;17.60;99.90
41784;DHT22;27458;53.236;-6.622;2022-07-29T05:23:25;17.60;99.90
41784;DHT22;27458;53.236;-6.622;2022-07-29T05:25:50;17.60;99.90
41784;DHT22;27458;53.236;-6.622;2022-07-29T05:28:18;17.70;99.90
41784;DHT22;27458;53.236;-6.622;2022-07-29T05:30:43;17.70;99.90
41784;DHT22;27458;53.236;-6.622;2022-07-29T05:33:10;17.70;99.90
41784;DHT22;27458;53.236;-6.622;2022-07-29T05:35:35;17.70;99.90
41784;DHT22;27458;53.236;-6.622;2022-07-29T05:38:02;17.70;99.90
41784;DHT22;27458;53.236;-6.622;2022-07-29T05:40:28;17.80;99.90
41784;DHT22;27458;53.236;-6.622;2022-07-29T05:42:54;17.80;99.90
41784;DHT22;27458;53.236;-6.622;2022-07-29T05:45:20;17.80;99.90
41784;DHT22;27458;53.236;-6.622;2022-07-29T05:47:45;17.80;99.90
41784;DHT22;27458;53.236;-6.622;2022-07-29T05:50:11;17.90;99.90
41784;DHT22;27458;53.236;-6.622;2022-07-29T05:52:37;17.90;99.90
41784;DHT22;27458;53.236;-6.622;2022-07-29T05:55:02;17.90;99.90
41784;DHT22;27458;53.236;-6.622;2022-07-29T05:57:30;17.90;99.90
41784;DHT22;27458;53.236;-6.622;2022-07-29T05:59:56;18.00;99.90
41784;DHT22;27458;53.236;-6.622;2022-07-29T06:02:22;18.00;99.90
41784;DHT22;27458;53.236;-6.622;2022-07-29T06:04:47;18.10;99.90
41784;DHT22;27458;53.236;-6.622;2022-07-29T06:07:13;18.20;99.90
41784;DHT22;27458;53.236;-6.622;2022-07-29T06:09:40;18.30;99.90
41784;DHT22;27458;53.236;-6.622;2022-07-29T06:12:06;18.40;99.90
41784;DHT22;27458;53.236;-6.622;2022-07-29T06:14:32;18.50;99.90
41784;DHT22;27458;53.236;-6.622;2022-07-29T06:16:58;18.50;99.90
41784;DHT22;27458;53.236;-6.622;2022-07-29T06:19:23;18.60;99.90
41784;DHT22;27458;53.236;-6.622;2022-07-29T06:21:49;18.60;99.90
41784;DHT22;27458;53.236;-6.622;2022-07-29T06:24:15;18.60;99.90
41784;DHT22;27458;53.236;-6.622;2022-07-29T06:26:41;18.60;99.90
41784;DHT22;27458;53.236;-6.622;2022-07-29T06:29:08;18.70;99.90
41784;DHT22;27458;53.236;-6.622;2022-07-29T06:31:36;18.60;99.90
41784;DHT22;27458;53.236;-6.622;2022-07-29T06:34:02;18.70;99.90
41784;DHT22;27458;53.236;-6.622;2022-07-29T06:36:27;18.70;99.90
41784;DHT22;27458;53.236;-6.622;2022-07-29T06:38:53;18.70;99.90
41784;DHT22;27458;53.236;-6.622;2022-07-29T06:41:18;18.70;99.90
41784;DHT22;27458;53.236;-6.622;2022-07-29T06:43:45;18.70;99.90
41784;DHT22;27458;53.236;-6.622;2022-07-29T06:46:15;18.80;99.90
41784;DHT22;27458;53.236;-6.622;2022-07-29T06:48:43;18.80;99.90
41784;DHT22;27458;53.236;-6.622;2022-07-29T06:51:09;18.90;99.90
41784;DHT22;27458;53.236;-6.622;2022-07-29T06:53:38;18.90;99.90
41784;DHT22;27458;53.236;-6.622;2022-07-29T06:56:05;19.00;99.90
41784;DHT22;27458;53.236;-6.622;2022-07-29T06:58:31;19.00;99.90
41784;DHT22;27458;53.236;-6.622;2022-07-29T07:01:00;19.10;99.90
41784;DHT22;27458;53.236;-6.622;2022-07-29T07:03:26;19.10;99.90
41784;DHT22;27458;53.236;-6.622;2022-07-29T07:05:53;19.20;99.90
41784;DHT22;27458;53.236;-6.622;2022-07-29T07:08:20;19.20;99.90
41784;DHT22;27458;53.236;-6.622;2022-07-29T07:10:46;19.20;99.90
41784;DHT22;27458;53.236;-6.622;2022-07-29T07:13:12;19.30;99.90
41784;DHT22;27458;53.236;-6.622;2022-07-29T07:15:37;19.30;99.90
41784;DHT22;27458;53.236;-6.622;2022-07-29T07:18:05;19.30;99.90
41784;DHT22;27458;53.236;-6.622;2022-07-29T07:20:32;19.40;99.90
41784;DHT22;27458;53.236;-6.622;2022-07-29T07:22:58;19.40;99.90
41784;DHT22;27458;53.236;-6.622;2022-07-29T07:25:23;19.40;99.90
41784;DHT22;27458;53.236;-6.622;2022-07-29T07:27:49;19.40;99.90
41784;DHT22;27458;53.236;-6.622;2022-07-29T07:30:15;19.50;99.90
41784;DHT22;27458;53.236;-6.622;2022-07-29T07:32:41;19.50;99.90
41784;DHT22;27458;53.236;-6.622;2022-07-29T07:35:08;19.60;99.90
41784;DHT22;27458;53.236;-6.622;2022-07-29T07:37:35;19.70;99.90
41784;DHT22;27458;53.236;-6.622;2022-07-29T07:40:01;19.80;99.90
41784;DHT22;27458;53.236;-6.622;2022-07-29T07:42:27;19.80;99.90
41784;DHT22;27458;53.236;-6.622;2022-07-29T07:44:52;19.90;99.90
41784;DHT22;27458;53.236;-6.622;2022-07-29T07:47:18;19.90;99.90
41784;DHT22;27458;53.236;-6.622;2022-07-29T07:49:51;20.00;99.90
41784;DHT22;27458;53.236;-6.622;2022-07-29T07:52:19;20.00;99.90
41784;DHT22;27458;53.236;-6.622;2022-07-29T07:54:45;20.10;99.90
41784;DHT22;27458;53.236;-6.622;2022-07-29T07:57:11;20.30;99.90
41784;DHT22;27458;53.236;-6.622;2022-07-29T07:59:37;20.40;99.90
41784;DHT22;27458;53.236;-6.622;2022-07-29T08:02:03;20.50;99.90
41784;DHT22;27458;53.236;-6.622;2022-07-29T08:04:29;20.60;99.90
41784;DHT22;27458;53.236;-6.622;2022-07-29T08:06:56;20.70;99.90
41784;DHT22;27458;53.236;-6.622;2022-07-29T08:09:22;20.80;99.90
41784;DHT22;27458;53.236;-6.622;2022-07-29T08:11:48;20.90;99.90
41784;DHT22;27458;53.236;-6.622;2022-07-29T08:14:14;20.90;99.90
41784;DHT22;27458;53.236;-6.622;2022-07-29T08:16:40;21.10;99.90
41784;DHT22;27458;53.236;-6.622;2022-07-29T08:19:07;21.10;99.90
41784;DHT22;27458;53.236;-6.622;2022-07-29T08:21:33;21.20;99.90
41784;DHT22;27458;53.236;-6.622;2022-07-29T08:23:58;21.30;99.90
41784;DHT22;27458;53.236;-6.622;2022-07-29T08:26:43;21.50;99.90
41784;DHT22;27458;53.236;-6.622;2022-07-29T08:29:09;21.60;99.90
41784;DHT22;27458;53.236;-6.622;2022-07-29T08:31:36;21.80;99.90
41784;DHT22;27458;53.236;-6.622;2022-07-29T08:34:03;21.90;99.90
41784;DHT22;27458;53.236;-6.622;2022-07-29T08:36:29;22.10;99.90
41784;DHT22;27458;53.236;-6.622;2022-07-29T08:38:55;22.20;99.90
41784;DHT22;27458;53.236;-6.622;2022-07-29T08:41:21;22.50;99.90
41784;DHT22;27458;53.236;-6.622;2022-07-29T08:43:48;22.70;99.90
41784;DHT22;27458;53.236;-6.622;2022-07-29T08:46:14;22.90;99.90
41784;DHT22;27458;53.236;-6.622;2022-07-29T08:48:41;23.00;99.90
41784;DHT22;27458;53.236;-6.622;2022-07-29T08:51:08;23.10;99.90
41784;DHT22;27458;53.236;-6.622;2022-07-29T08:53:41;23.10;99.90
41784;DHT22;27458;53.236;-6.622;2022-07-29T08:56:07;23.00;99.90
41784;DHT22;27458;53.236;-6.622;2022-07-29T08:58:33;22.80;99.90
41784;DHT22;27458;53.236;-6.622;2022-07-29T09:01:01;22.60;99.90
41784;DHT22;27458;53.236;-6.622;2022-07-29T09:03:32;22.40;99.90
41784;DHT22;27458;53.236;-6.622;2022-07-29T09:05:59;22.20;99.90
41784;DHT22;27458;53.236;-6.622;2022-07-29T09:43:38;22.60;99.90
41784;DHT22;27458;53.236;-6.622;2022-07-29T09:46:23;22.80;99.90
41784;DHT22;27458;53.236;-6.622;2022-07-29T09:49:06;22.90;99.90
41784;DHT22;27458;53.236;-6.622;2022-07-29T09:51:33;23.00;99.90
41784;DHT22;27458;53.236;-6.622;2022-07-29T09:53:58;23.10;99.90
41784;DHT22;27458;53.236;-6.622;2022-07-29T09:56:41;23.30;99.90
41784;DHT22;27458;53.236;-6.622;2022-07-29T09:59:08;23.50;99.90
41784;DHT22;27458;53.236;-6.622;2022-07-29T10:01:34;23.60;99.90
41784;DHT22;27458;53.236;-6.622;2022-07-29T10:04:01;23.70;99.90
41784;DHT22;27458;53.236;-6.622;2022-07-29T10:06:27;23.80;99.90
41784;DHT22;27458;53.236;-6.622;2022-07-29T10:08:53;23.90;99.90
41784;DHT22;27458;53.236;-6.622;2022-07-29T10:11:19;24.00;99.90
41784;DHT22;27458;53.236;-6.622;2022-07-29T10:13:47;23.90;99.90
41784;DHT22;27458;53.236;-6.622;2022-07-29T10:16:14;23.80;99.90
41784;DHT22;27458;53.236;-6.622;2022-07-29T10:18:41;23.60;99.90
41784;DHT22;27458;53.236;-6.622;2022-07-29T10:21:07;23.50;99.90
41784;DHT22;27458;53.236;-6.622;2022-07-29T10:23:34;23.40;99.90
41784;DHT22;27458;53.236;-6.622;2022-07-29T10:26:00;23.40;99.90
41784;DHT22;27458;53.236;-6.622;2022-07-29T10:28:27;23.30;99.90
41784;DHT22;27458;53.236;-6.622;2022-07-29T10:31:00;23.30;99.90
41784;DHT22;27458;53.236;-6.622;2022-07-29T10:39:27;23.00;99.90
41784;DHT22;27458;53.236;-6.622;2022-07-29T10:44:42;23.00;99.90
41784;DHT22;27458;53.236;-6.622;2022-07-29T10:47:20;23.10;99.90
41784;DHT22;27458;53.236;-6.622;2022-07-29T10:50:04;23.40;99.90
41784;DHT22;27458;53.236;-6.622;2022-07-29T10:55:43;23.80;99.90
41784;DHT22;27458;53.236;-6.622;2022-07-29T10:58:22;23.80;99.90
41784;DHT22;27458;53.236;-6.622;2022-07-29T11:10:43;24.00;99.70
41784;DHT22;27458;53.236;-6.622;2022-07-29T11:17:05;24.00;99.60
41784;DHT22;27458;53.236;-6.622;2022-07-29T11:19:42;23.90;99.50
41784;DHT22;27458;53.236;-6.622;2022-07-29T11:22:11;23.80;99.70
41784;DHT22;27458;53.236;-6.622;2022-07-29T11:24:39;23.80;99.70
41784;DHT22;27458;53.236;-6.622;2022-07-29T11:29:50;23.70;99.80
41784;DHT22;27458;53.236;-6.622;2022-07-29T11:32:17;23.70;99.90
41784;DHT22;27458;53.236;-6.622;2022-07-29T11:34:46;23.80;99.90
41784;DHT22;27458;53.236;-6.622;2022-07-29T11:45:01;24.40;99.80
41784;DHT22;27458;53.236;-6.622;2022-07-29T11:47:32;24.70;99.30
41784;DHT22;27458;53.236;-6.622;2022-07-29T11:49:59;24.90;98.70
41784;DHT22;27458;53.236;-6.622;2022-07-29T11:52:48;25.00;98.40
41784;DHT22;27458;53.236;-6.622;2022-07-29T11:55:18;25.00;98.50
41784;DHT22;27458;53.236;-6.622;2022-07-29T11:57:56;25.20;98.30
41784;DHT22;27458;53.236;-6.622;2022-07-29T12:02:57;25.60;97.50
41784;DHT22;27458;53.236;-6.622;2022-07-29T12:05:40;25.50;97.50
41784;DHT22;27458;53.236;-6.622;2022-07-29T12:18:32;25.30;97.60
41784;DHT22;27458;53.236;-6.622;2022-07-29T12:21:00;25.20;97.60
41784;DHT22;27458;53.236;-6.622;2022-07-29T12:23:32;25.20;97.70
41784;DHT22;27458;53.236;-6.622;2022-07-29T12:26:06;25.30;97.70
41784;DHT22;27458;53.236;-6.622;2022-07-29T12:28:37;25.30;97.60
41784;DHT22;27458;53.236;-6.622;2022-07-29T12:31:30;25.20;97.50
41784;DHT22;27458;53.236;-6.622;2022-07-29T12:33:57;25.10;97.90
41784;DHT22;27458;53.236;-6.622;2022-07-29T12:36:25;25.00;97.80
41784;DHT22;27458;53.236;-6.622;2022-07-29T12:38:51;24.80;97.90
41784;DHT22;27458;53.236;-6.622;2022-07-29T12:41:17;24.60;98.30
41784;DHT22;27458;53.236;-6.622;2022-07-29T12:43:54;24.40;98.50
41784;DHT22;27458;53.236;-6.622;2022-07-29T12:46:20;24.20;98.80
41784;DHT22;27458;53.236;-6.622;2022-07-29T12:48:51;24.00;99.10
41784;DHT22;27458;53.236;-6.622;2022-07-29T12:54:09;23.80;99.80
41784;DHT22;27458;53.236;-6.622;2022-07-29T12:56:37;23.80;99.90
41784;DHT22;27458;53.236;-6.622;2022-07-29T12:59:20;23.80;99.90
41784;DHT22;27458;53.236;-6.622;2022-07-29T13:01:50;23.90;99.90
41784;DHT22;27458;53.236;-6.622;2022-07-29T13:04:33;23.90;99.90
41784;DHT22;27458;53.236;-6.622;2022-07-29T13:07:07;24.00;99.80
41784;DHT22;27458;53.236;-6.622;2022-07-29T13:09:41;24.10;99.60
41784;DHT22;27458;53.236;-6.622;2022-07-29T13:12:10;24.00;99.60
41784;DHT22;27458;53.236;-6.622;2022-07-29T13:14:38;24.10;99.70
41784;DHT22;27458;53.236;-6.622;2022-07-29T13:17:13;24.10;99.60
41784;DHT22;27458;53.236;-6.622;2022-07-29T13:20:06;24.10;99.80
41784;DHT22;27458;53.236;-6.622;2022-07-29T13:22:41;24.20;99.80
41784;DHT22;27458;53.236;-6.622;2022-07-29T13:25:10;24.40;99.60
41784;DHT22;27458;53.236;-6.622;2022-07-29T13:27:38;24.60;99.40
41784;DHT22;27458;53.236;-6.622;2022-07-29T13:30:06;24.80;99.10
41784;DHT22;27458;53.236;-6.622;2022-07-29T13:32:32;24.80;98.60
41784;DHT22;27458;53.236;-6.622;2022-07-29T13:35:01;24.80;98.60
41784;DHT22;27458;53.236;-6.622;2022-07-29T13:37:30;24.70;98.60
41784;DHT22;27458;53.236;-6.622;2022-07-29T13:39:58;24.50;98.70
41784;DHT22;27458;53.236;-6.622;2022-07-29T13:42:25;24.30;98.90
41784;DHT22;27458;53.236;-6.622;2022-07-29T13:44:54;24.10;99.30
41784;DHT22;27458;53.236;-6.622;2022-07-29T13:47:21;23.90;99.60
41784;DHT22;27458;53.236;-6.622;2022-07-29T13:49:47;23.80;99.90
41784;DHT22;27458;53.236;-6.622;2022-07-29T13:52:13;23.80;99.90
41784;DHT22;27458;53.236;-6.622;2022-07-29T13:54:39;23.90;99.90
41784;DHT22;27458;53.236;-6.622;2022-07-29T13:57:05;23.90;99.90
41784;DHT22;27458;53.236;-6.622;2022-07-29T13:59:31;24.00;99.90
41784;DHT22;27458;53.236;-6.622;2022-07-29T14:01:57;24.10;99.90
41784;DHT22;27458;53.236;-6.622;2022-07-29T14:04:23;24.20;99.60
41784;DHT22;27458;53.236;-6.622;2022-07-29T14:06:51;24.20;99.80
41784;DHT22;27458;53.236;-6.622;2022-07-29T14:09:17;24.20;99.80
41784;DHT22;27458;53.236;-6.622;2022-07-29T14:11:43;24.20;99.90
41784;DHT22;27458;53.236;-6.622;2022-07-29T14:14:12;24.30;99.80
41784;DHT22;27458;53.236;-6.622;2022-07-29T14:16:40;24.30;99.90
41784;DHT22;27458;53.236;-6.622;2022-07-29T14:19:06;24.30;99.70
41784;DHT22;27458;53.236;-6.622;2022-07-29T14:21:32;24.30;99.80
41784;DHT22;27458;53.236;-6.622;2022-07-29T14:23:58;24.40;99.80
41784;DHT22;27458;53.236;-6.622;2022-07-29T14:26:24;24.40;99.70
41784;DHT22;27458;53.236;-6.622;2022-07-29T14:28:50;24.50;99.30
41784;DHT22;27458;53.236;-6.622;2022-07-29T14:31:15;24.50;99.00
41784;DHT22;27458;53.236;-6.622;2022-07-29T14:33:41;24.50;98.80
41784;DHT22;27458;53.236;-6.622;2022-07-29T14:36:08;24.70;98.50
41784;DHT22;27458;53.236;-6.622;2022-07-29T14:38:35;24.80;98.20
41784;DHT22;27458;53.236;-6.622;2022-07-29T14:41:00;24.90;97.70
41784;DHT22;27458;53.236;-6.622;2022-07-29T14:43:26;24.90;97.30
41784;DHT22;27458;53.236;-6.622;2022-07-29T14:45:52;24.90;97.10
41784;DHT22;27458;53.236;-6.622;2022-07-29T14:48:18;24.90;96.90
41784;DHT22;27458;53.236;-6.622;2022-07-29T14:50:43;24.80;96.80
41784;DHT22;27458;53.236;-6.622;2022-07-29T14:53:09;24.70;96.80
41784;DHT22;27458;53.236;-6.622;2022-07-29T14:55:37;24.60;96.70
41784;DHT22;27458;53.236;-6.622;2022-07-29T14:58:03;24.50;96.50
41784;DHT22;27458;53.236;-6.622;2022-07-29T15:00:29;24.40;96.70
41784;DHT22;27458;53.236;-6.622;2022-07-29T15:02:58;24.40;96.80
41784;DHT22;27458;53.236;-6.622;2022-07-29T15:05:24;24.40;96.70
41784;DHT22;27458;53.236;-6.622;2022-07-29T15:07:50;24.50;96.50
41784;DHT22;27458;53.236;-6.622;2022-07-29T15:10:16;24.50;96.50
41784;DHT22;27458;53.236;-6.622;2022-07-29T15:12:46;24.50;96.40
41784;DHT22;27458;53.236;-6.622;2022-07-29T15:15:11;24.50;96.10
41784;DHT22;27458;53.236;-6.622;2022-07-29T15:17:37;24.40;96.00
41784;DHT22;27458;53.236;-6.622;2022-07-29T15:20:03;24.30;96.10
41784;DHT22;27458;53.236;-6.622;2022-07-29T15:22:29;24.30;96.10
41784;DHT22;27458;53.236;-6.622;2022-07-29T15:24:58;24.30;96.10
41784;DHT22;27458;53.236;-6.622;2022-07-29T15:27:24;24.20;96.10
41784;DHT22;27458;53.236;-6.622;2022-07-29T15:29:50;24.20;96.00
41784;DHT22;27458;53.236;-6.622;2022-07-29T15:32:16;24.20;95.80
41784;DHT22;27458;53.236;-6.622;2022-07-29T15:34:42;24.10;95.70
41784;DHT22;27458;53.236;-6.622;2022-07-29T15:37:10;24.00;95.80
41784;DHT22;27458;53.236;-6.622;2022-07-29T15:39:36;23.90;95.80
41784;DHT22;27458;53.236;-6.622;2022-07-29T15:42:03;23.90;95.90
41784;DHT22;27458;53.236;-6.622;2022-07-29T15:44:28;24.00;95.60
41784;DHT22;27458;53.236;-6.622;2022-07-29T15:46:54;24.00;95.60
41784;DHT22;27458;53.236;-6.622;2022-07-29T15:49:37;24.20;95.20
41784;DHT22;27458;53.236;-6.622;2022-07-29T15:52:05;24.20;94.70
41784;DHT22;27458;53.236;-6.622;2022-07-29T15:54:32;24.20;94.70
41784;DHT22;27458;53.236;-6.622;2022-07-29T15:56:58;24.20;94.50
41784;DHT22;27458;53.236;-6.622;2022-07-29T15:59:26;24.20;94.40
41784;DHT22;27458;53.236;-6.622;2022-07-29T16:01:52;24.40;94.30
41784;DHT22;27458;53.236;-6.622;2022-07-29T16:04:18;24.40;94.00
41784;DHT22;27458;53.236;-6.622;2022-07-29T16:06:45;24.50;93.60
41784;DHT22;27458;53.236;-6.622;2022-07-29T16:09:13;24.50;93.30
41784;DHT22;27458;53.236;-6.622;2022-07-29T16:11:40;24.50;93.20
41784;DHT22;27458;53.236;-6.622;2022-07-29T16:14:06;24.40;92.90
41784;DHT22;27458;53.236;-6.622;2022-07-29T16:16:32;24.40;92.80
41784;DHT22;27458;53.236;-6.622;2022-07-29T16:18:58;24.30;92.60
41784;DHT22;27458;53.236;-6.622;2022-07-29T16:21:24;24.30;92.60
41784;DHT22;27458;53.236;-6.622;2022-07-29T16:23:49;24.30;92.40
41784;DHT22;27458;53.236;-6.622;2022-07-29T16:26:16;24.20;92.30
41784;DHT22;27458;53.236;-6.622;2022-07-29T16:28:41;24.20;92.60
41784;DHT22;27458;53.236;-6.622;2022-07-29T16:31:07;24.10;92.20
41784;DHT22;27458;53.236;-6.622;2022-07-29T16:33:33;24.00;91.90
41784;DHT22;27458;53.236;-6.622;2022-07-29T16:35:59;23.90;91.80
41784;DHT22;27458;53.236;-6.622;2022-07-29T16:38:25;23.80;91.90
41784;DHT22;27458;53.236;-6.622;2022-07-29T16:40:52;23.60;91.80
41784;DHT22;27458;53.236;-6.622;2022-07-29T16:43:18;23.50;91.80
41784;DHT22;27458;53.236;-6.622;2022-07-29T16:45:44;23.50;91.70
41784;DHT22;27458;53.236;-6.622;2022-07-29T16:48:10;23.50;91.50
41784;DHT22;27458;53.236;-6.622;2022-07-29T16:50:37;23.50;91.20
41784;DHT22;27458;53.236;-6.622;2022-07-29T16:53:03;23.50;90.80
41784;DHT22;27458;53.236;-6.622;2022-07-29T16:55:32;23.40;90.50
41784;DHT22;27458;53.236;-6.622;2022-07-29T16:58:00;23.40;90.20
41784;DHT22;27458;53.236;-6.622;2022-07-29T17:00:26;23.40;90.00
41784;DHT22;27458;53.236;-6.622;2022-07-29T17:02:52;23.40;89.70
41784;DHT22;27458;53.236;-6.622;2022-07-29T17:05:18;23.40;89.40
41784;DHT22;27458;53.236;-6.622;2022-07-29T17:07:44;23.30;89.10
41784;DHT22;27458;53.236;-6.622;2022-07-29T17:10:18;23.30;88.90
41784;DHT22;27458;53.236;-6.622;2022-07-29T17:12:47;23.30;88.50
41784;DHT22;27458;53.236;-6.622;2022-07-29T17:15:15;23.30;88.30
41784;DHT22;27458;53.236;-6.622;2022-07-29T17:17:47;23.20;87.80
41784;DHT22;27458;53.236;-6.622;2022-07-29T17:20:13;23.20;87.20
41784;DHT22;27458;53.236;-6.622;2022-07-29T17:22:40;23.20;86.90
41784;DHT22;27458;53.236;-6.622;2022-07-29T17:25:12;23.10;86.40
41784;DHT22;27458;53.236;-6.622;2022-07-29T17:27:38;23.00;86.20
41784;DHT22;27458;53.236;-6.622;2022-07-29T17:30:04;22.90;86.20
41784;DHT22;27458;53.236;-6.622;2022-07-29T17:32:31;22.90;86.20
41784;DHT22;27458;53.236;-6.622;2022-07-29T17:35:03;22.90;86.10
41784;DHT22;27458;53.236;-6.622;2022-07-29T17:37:49;22.90;85.90
41784;DHT22;27458;53.236;-6.622;2022-07-29T17:40:15;22.90;85.80
41784;DHT22;27458;53.236;-6.622;2022-07-29T17:42:41;22.90;85.70
41784;DHT22;27458;53.236;-6.622;2022-07-29T17:45:07;22.90;85.40
41784;DHT22;27458;53.236;-6.622;2022-07-29T17:47:32;22.90;85.20
41784;DHT22;27458;53.236;-6.622;2022-07-29T17:50:02;22.80;84.90
41784;DHT22;27458;53.236;-6.622;2022-07-29T17:52:28;22.80;84.90
41784;DHT22;27458;53.236;-6.622;2022-07-29T17:54:56;22.70;84.80
41784;DHT22;27458;53.236;-6.622;2022-07-29T17:57:22;22.70;84.90
41784;DHT22;27458;53.236;-6.622;2022-07-29T17:59:48;22.70;85.00
41784;DHT22;27458;53.236;-6.622;2022-07-29T18:02:16;22.70;85.10
41784;DHT22;27458;53.236;-6.622;2022-07-29T18:04:42;22.70;85.20
41784;DHT22;27458;53.236;-6.622;2022-07-29T18:07:08;22.80;85.50
41784;DHT22;27458;53.236;-6.622;2022-07-29T18:09:33;22.80;85.30
41784;DHT22;27458;53.236;-6.622;2022-07-29T18:11:59;22.80;85.30
41784;DHT22;27458;53.236;-6.622;2022-07-29T18:14:25;22.80;85.50
41784;DHT22;27458;53.236;-6.622;2022-07-29T18:16:54;22.80;85.60
41784;DHT22;27458;53.236;-6.622;2022-07-29T18:19:19;22.70;85.80